createdAt,value
2022-09-05T00:00:11.518Z,101123.00
2022-09-05T00:02:54.250Z,101128.00
2022-09-05T00:06:01.975Z,101116.00
2022-09-05T00:09:24.793Z,101119.00
2022-09-05T00:12:00.527Z,101124.00
2022-09-05T00:15:15.021Z,101119.00
2022-09-05T00:22:12.861Z,101117.00
2022-09-05T00:24:22.716Z,101114.00
2022-09-05T00:25:33.294Z,101112.00
2022-09-05T00:28:38.694Z,101110.00
2022-09-05T00:31:53.281Z,101110.00
2022-09-05T00:34:51.457Z,101116.00
2022-09-05T00:37:34.453Z,101112.00
2022-09-05T00:40:31.913Z,101114.00
2022-09-05T00:43:08.567Z,101121.00
2022-09-05T00:45:45.081Z,101122.00
2022-09-05T00:48:52.170Z,101118.00
2022-09-05T00:51:28.467Z,101111.00
2022-09-05T00:54:15.788Z,101120.00
2022-09-05T00:57:37.991Z,101127.00
2022-09-05T01:00:47.376Z,101130.00
2022-09-05T01:03:30.333Z,101133.00
2022-09-05T01:06:35.977Z,101129.00
2022-09-05T01:09:24.497Z,101127.00
2022-09-05T01:12:12.499Z,101128.00
2022-09-05T01:15:10.839Z,101131.00
2022-09-05T01:18:00.427Z,101131.00
2022-09-05T01:20:48.960Z,101131.00
2022-09-05T01:24:02.788Z,101138.00
2022-09-05T01:28:03.875Z,101130.00
2022-09-05T01:31:23.449Z,101131.00
2022-09-05T01:34:18.069Z,101131.00
2022-09-05T01:37:33.376Z,101128.00
2022-09-05T01:40:25.337Z,101134.00
2022-09-05T01:43:11.310Z,101129.00
2022-09-05T01:46:07.423Z,101130.00
2022-09-05T01:49:11.428Z,101133.00
2022-09-05T01:51:53.467Z,101135.00
2022-09-05T01:54:31.585Z,101128.00
2022-09-05T01:57:19.571Z,101132.00
2022-09-05T02:00:35.296Z,101124.00
2022-09-05T02:03:22.180Z,101123.00
2022-09-05T02:06:08.391Z,101128.00
2022-09-05T02:09:20.343Z,101133.00
2022-09-05T02:11:58.376Z,101125.00
2022-09-05T02:15:19.421Z,101126.00
2022-09-05T02:17:54.311Z,101133.00
2022-09-05T02:20:34.846Z,101129.00
2022-09-05T02:23:40.495Z,101125.00
2022-09-05T02:26:24.765Z,101122.00
2022-09-05T02:29:29.979Z,101120.00
2022-09-05T02:32:17.409Z,101128.00
2022-09-05T02:35:13.980Z,101121.00
2022-09-05T02:39:34.877Z,101126.00
2022-09-05T02:45:07.731Z,101116.00
2022-09-05T02:45:21.698Z,101117.00
2022-09-05T02:47:41.559Z,101121.00
2022-09-05T02:52:54.910Z,101118.00
2022-09-05T02:57:34.739Z,101106.00
2022-09-05T02:57:35.917Z,101118.00
2022-09-05T02:59:49.394Z,101112.00
2022-09-05T03:03:03.450Z,101118.00
2022-09-05T03:05:47.363Z,101114.00
2022-09-05T03:08:20.616Z,101115.00
2022-09-05T03:10:56.932Z,101100.00
2022-09-05T03:13:58.178Z,101101.00
2022-09-05T03:16:52.113Z,101094.00
2022-09-05T03:19:25.189Z,101100.00
2022-09-05T03:22:23.026Z,101088.00
2022-09-05T03:25:30.550Z,101092.00
2022-09-05T03:28:19.124Z,101092.00
2022-09-05T03:31:37.601Z,101087.00
2022-09-05T03:34:26.365Z,101090.00
2022-09-05T03:37:24.027Z,101089.00
2022-09-05T03:40:36.722Z,101086.00
2022-09-05T03:43:35.185Z,101090.00
2022-09-05T03:46:42.626Z,101093.00
2022-09-05T03:53:16.415Z,101094.00
2022-09-05T03:57:11.564Z,101109.00
2022-09-05T03:57:15.587Z,101109.00
2022-09-05T03:59:47.559Z,101106.00
2022-09-05T04:07:38.819Z,101099.00
2022-09-05T04:08:27.923Z,101100.00
2022-09-05T04:08:50.172Z,101100.00
2022-09-05T04:11:48.481Z,101114.00
2022-09-05T04:14:55.813Z,101110.00
2022-09-05T04:18:03.776Z,101121.00
2022-09-05T04:20:47.997Z,101120.00
2022-09-05T04:23:37.135Z,101128.00
2022-09-05T04:26:19.151Z,101123.00
2022-09-05T04:29:31.670Z,101130.00
2022-09-05T04:32:29.064Z,101133.00
2022-09-05T04:35:30.535Z,101128.00
2022-09-05T04:38:40.857Z,101136.00
2022-09-05T04:41:12.430Z,101139.00
2022-09-05T04:44:15.244Z,101139.00
2022-09-05T04:46:53.620Z,101135.00
2022-09-05T04:49:33.461Z,101136.00
2022-09-05T04:52:31.136Z,101143.00
2022-09-05T04:55:51.743Z,101140.00
2022-09-05T05:00:33.801Z,101145.00
2022-09-05T05:06:11.033Z,101145.00
2022-09-05T05:06:16.280Z,101151.00
2022-09-05T05:08:05.915Z,101150.00
2022-09-05T05:14:24.627Z,101147.00
2022-09-05T05:18:13.920Z,101163.00
2022-09-05T05:18:15.639Z,101163.00
2022-09-05T05:19:41.050Z,101170.00
2022-09-05T05:22:16.875Z,101167.00
2022-09-05T05:24:52.821Z,101174.00
2022-09-05T05:27:42.319Z,101177.00
2022-09-05T05:30:12.207Z,101175.00
2022-09-05T05:32:49.338Z,101177.00
2022-09-05T05:35:33.568Z,101186.00
2022-09-05T05:38:57.184Z,101181.00
2022-09-05T05:41:54.388Z,101183.00
2022-09-05T05:44:35.030Z,101187.00
2022-09-05T05:47:31.531Z,101188.00
2022-09-05T05:50:19.977Z,101181.00
2022-09-05T05:52:53.161Z,101186.00
2022-09-05T05:55:52.298Z,101185.00
2022-09-05T05:59:24.979Z,101187.00
2022-09-05T06:02:36.881Z,101182.00
2022-09-05T06:05:59.863Z,101191.00
2022-09-05T06:12:13.050Z,101183.00
2022-09-05T06:14:56.700Z,101188.00
2022-09-05T06:15:46.006Z,101191.00
2022-09-05T06:18:54.455Z,101186.00
2022-09-05T06:22:11.183Z,101182.00
2022-09-05T06:24:58.718Z,101182.00
2022-09-05T06:28:01.714Z,101184.00
2022-09-05T06:31:31.377Z,101173.00
2022-09-05T06:34:33.455Z,101185.00
2022-09-05T06:37:06.602Z,101178.00
2022-09-05T06:40:17.260Z,101183.00
2022-09-05T06:43:19.722Z,101196.00
2022-09-05T06:46:54.652Z,101201.00
2022-09-05T06:49:46.287Z,101201.00
2022-09-05T06:52:35.727Z,101196.00
2022-09-05T06:55:29.025Z,101202.00
2022-09-05T06:58:02.419Z,101209.00
2022-09-05T07:00:49.947Z,101209.00
2022-09-05T07:04:33.199Z,101206.00
2022-09-05T07:07:24.185Z,101215.00
2022-09-05T07:10:22.175Z,101211.00
2022-09-05T07:13:33.949Z,101212.00
2022-09-05T07:16:22.837Z,101216.00
2022-09-05T07:19:29.567Z,101216.00
2022-09-05T07:22:47.547Z,101209.00
2022-09-05T07:25:27.928Z,101217.00
2022-09-05T07:28:28.601Z,101217.00
2022-09-05T07:30:58.415Z,101216.00
2022-09-05T07:33:30.351Z,101210.00
2022-09-05T07:36:12.532Z,101217.00
2022-09-05T07:38:55.219Z,101218.00
2022-09-05T07:41:31.329Z,101216.00
2022-09-05T07:44:17.022Z,101223.00
2022-09-05T07:47:01.724Z,101222.00
2022-09-05T07:49:33.213Z,101225.00
2022-09-05T07:57:10.365Z,101223.00
2022-09-05T07:57:15.710Z,101224.00
2022-09-05T07:58:15.344Z,101225.00
2022-09-05T08:00:51.848Z,101227.00
2022-09-05T08:03:31.849Z,101234.00
2022-09-05T08:06:06.754Z,101223.00
2022-09-05T08:09:18.472Z,101230.00
2022-09-05T08:11:47.259Z,101221.00
2022-09-05T08:14:44.617Z,101220.00
2022-09-05T08:17:30.016Z,101219.00
2022-09-05T08:20:09.975Z,101232.00
2022-09-05T08:22:59.532Z,101226.00
2022-09-05T08:25:57.105Z,101232.00
2022-09-05T08:28:39.021Z,101228.00
2022-09-05T08:31:20.480Z,101226.00
2022-09-05T08:33:49.436Z,101222.00
2022-09-05T08:36:46.533Z,101220.00
2022-09-05T08:39:21.209Z,101220.00
2022-09-05T08:42:25.609Z,101223.00
2022-09-05T08:46:44.901Z,101221.00
2022-09-05T08:48:31.745Z,101216.00
2022-09-05T08:51:32.590Z,101215.00
2022-09-05T08:54:30.798Z,101220.00
2022-09-05T08:57:18.347Z,101211.00
2022-09-05T09:00:20.699Z,101211.00
2022-09-05T09:03:06.488Z,101201.00
2022-09-05T09:06:13.848Z,101201.00
2022-09-05T09:09:14.553Z,101199.00
2022-09-05T09:11:55.732Z,101201.00
2022-09-05T09:15:23.201Z,101187.00
2022-09-05T09:17:52.584Z,101192.00
2022-09-05T09:20:31.455Z,101196.00
2022-09-05T09:23:32.106Z,101197.00
2022-09-05T09:26:16.101Z,101183.00
2022-09-05T09:29:04.140Z,101192.00
2022-09-05T09:31:47.285Z,101171.00
2022-09-05T09:34:26.786Z,101174.00
2022-09-05T09:37:25.445Z,101177.00
2022-09-05T09:40:52.399Z,101174.00
2022-09-05T09:43:58.531Z,101171.00
2022-09-05T09:46:43.890Z,101176.00
2022-09-05T09:49:38.937Z,101170.00
2022-09-05T09:52:25.154Z,101167.00
2022-09-05T09:55:40.695Z,101176.00
2022-09-05T09:58:34.141Z,101170.00
2022-09-05T10:01:36.209Z,101173.00
2022-09-05T10:10:33.121Z,101164.00
2022-09-05T10:10:56.271Z,101164.00
2022-09-05T10:11:03.928Z,101154.00
2022-09-05T10:13:52.488Z,101161.00
2022-09-05T10:16:58.907Z,101159.00
2022-09-05T10:23:11.513Z,101147.00
2022-09-05T10:26:27.583Z,101150.00
2022-09-05T10:29:44.253Z,101154.00
2022-09-05T10:35:10.990Z,101150.00
2022-09-05T10:35:42.240Z,101148.00
2022-09-05T10:38:25.409Z,101135.00
2022-09-05T10:41:21.670Z,101143.00
2022-09-05T10:44:02.588Z,101141.00
2022-09-05T10:47:23.681Z,101145.00
2022-09-05T10:50:11.760Z,101145.00
2022-09-05T10:53:25.364Z,101139.00
2022-09-05T10:56:21.890Z,101146.00
2022-09-05T11:02:16.238Z,101135.00
2022-09-05T11:02:33.574Z,101131.00
2022-09-05T11:05:31.924Z,101143.00
2022-09-05T11:08:29.001Z,101133.00
2022-09-05T11:11:28.663Z,101129.00
2022-09-05T11:14:26.670Z,101132.00
2022-09-05T11:17:07.619Z,101123.00
2022-09-05T11:19:45.831Z,101121.00
2022-09-05T11:22:23.193Z,101107.00
2022-09-05T11:25:04.122Z,101113.00
2022-09-05T11:27:46.317Z,101116.00
2022-09-05T11:30:30.979Z,101104.00
2022-09-05T11:37:52.256Z,101109.00
2022-09-05T11:39:55.957Z,101109.00
2022-09-05T11:40:31.616Z,101109.00
2022-09-05T11:43:07.166Z,101102.00
2022-09-05T11:45:46.598Z,101106.00
2022-09-05T11:48:38.473Z,101087.00
2022-09-05T11:51:26.081Z,101100.00
2022-09-05T11:54:26.824Z,101108.00
2022-09-05T11:57:33.786Z,101101.00
2022-09-05T12:00:33.081Z,101106.00
2022-09-05T12:04:02.236Z,101099.00
2022-09-05T12:06:36.244Z,101082.00
2022-09-05T12:09:18.450Z,101094.00
2022-09-05T12:12:41.767Z,101100.00
2022-09-05T12:15:36.461Z,101096.00
2022-09-05T12:18:36.695Z,101089.00
2022-09-05T12:21:38.375Z,101087.00
2022-09-05T12:25:16.970Z,101085.00
2022-09-05T12:27:41.087Z,101082.00
2022-09-05T12:30:05.613Z,101082.00
2022-09-05T12:34:15.063Z,101086.00
2022-09-05T12:40:48.190Z,101082.00
2022-09-05T12:41:00.932Z,101072.00
2022-09-05T12:43:14.364Z,101068.00
2022-09-05T12:45:58.439Z,101066.00
2022-09-05T12:48:38.668Z,101066.00
2022-09-05T12:51:46.274Z,101067.00
2022-09-05T12:54:34.218Z,101062.00
2022-09-05T13:01:08.165Z,101061.00
2022-09-05T13:03:05.818Z,101058.00
2022-09-05T13:03:27.922Z,101056.00
2022-09-05T13:06:24.930Z,101050.00
2022-09-05T13:09:03.740Z,101056.00
2022-09-05T13:14:59.830Z,101058.00
2022-09-05T13:15:21.808Z,101051.00
2022-09-05T13:18:13.539Z,101055.00
2022-09-05T13:20:56.171Z,101050.00
2022-09-05T13:23:32.809Z,101044.00
2022-09-05T13:26:08.189Z,101048.00
2022-09-05T13:29:03.963Z,101050.00
2022-09-05T13:35:06.986Z,101055.00
2022-09-05T13:38:06.613Z,101059.00
2022-09-05T13:41:04.610Z,101040.00
2022-09-05T13:43:38.534Z,101048.00
2022-09-05T13:46:11.304Z,101044.00
2022-09-05T13:51:54.075Z,101041.00
2022-09-05T13:55:03.182Z,101032.00
2022-09-05T13:57:46.133Z,101024.00
2022-09-05T14:00:28.136Z,101026.00
2022-09-05T14:03:39.196Z,101021.00
2022-09-05T14:06:48.816Z,101018.00
2022-09-05T14:09:36.652Z,101016.00
2022-09-05T14:12:29.693Z,101015.00
2022-09-05T14:15:41.278Z,101008.00
2022-09-05T14:18:26.993Z,101013.00
2022-09-05T14:21:15.973Z,101005.00
2022-09-05T14:23:56.477Z,101000.00
2022-09-05T14:26:48.345Z,101002.00
2022-09-05T14:29:35.696Z,101000.00
2022-09-05T14:37:40.742Z,100999.00
2022-09-05T14:37:51.715Z,100994.00
2022-09-05T14:38:43.023Z,100988.00
2022-09-05T14:41:35.007Z,100988.00
2022-09-05T14:44:41.630Z,100974.00
2022-09-05T14:47:53.224Z,100986.00
2022-09-05T14:50:49.645Z,100977.00
2022-09-05T14:56:47.750Z,100975.00
2022-09-05T15:02:48.564Z,100966.00
2022-09-05T15:02:51.647Z,100965.00
2022-09-05T15:05:46.151Z,100961.00
2022-09-05T15:11:23.922Z,100970.00
2022-09-05T15:12:19.699Z,100966.00
2022-09-05T15:14:12.210Z,100967.00
2022-09-05T15:16:45.916Z,100974.00
2022-09-05T15:20:05.795Z,100970.00
2022-09-05T15:22:38.906Z,100960.00
2022-09-05T15:25:21.345Z,100968.00
2022-09-05T15:27:49.778Z,100981.00
2022-09-05T15:30:35.118Z,100976.00
2022-09-05T15:33:25.616Z,100974.00
2022-09-05T15:35:54.288Z,100972.00
2022-09-05T15:38:30.679Z,100976.00
2022-09-05T15:41:13.883Z,100977.00
2022-09-05T15:44:09.405Z,100969.00
2022-09-05T15:47:06.582Z,100965.00
2022-09-05T15:49:49.332Z,100972.00
2022-09-05T15:52:16.790Z,100976.00
2022-09-05T15:54:52.940Z,100977.00
2022-09-05T15:57:52.007Z,100979.00
2022-09-05T16:00:41.644Z,100980.00
2022-09-05T16:06:03.981Z,100972.00
2022-09-05T16:10:30.171Z,100988.00
2022-09-05T16:10:44.978Z,100985.00
2022-09-05T16:12:34.830Z,100983.00
2022-09-05T16:16:52.976Z,100977.00
2022-09-05T16:23:17.263Z,100967.00
2022-09-05T16:23:26.014Z,100972.00
2022-09-05T16:24:10.148Z,100967.00
2022-09-05T16:26:47.110Z,100969.00
2022-09-05T16:29:26.191Z,100966.00
2022-09-05T16:32:02.454Z,100963.00
2022-09-05T16:34:57.378Z,100949.00
2022-09-05T16:37:27.392Z,100947.00
2022-09-05T16:40:04.352Z,100943.00
2022-09-05T16:42:47.344Z,100936.00
2022-09-05T16:45:45.621Z,100938.00
2022-09-05T16:48:39.848Z,100938.00
2022-09-05T16:51:44.640Z,100936.00
2022-09-05T16:54:28.560Z,100938.00
2022-09-05T16:57:28.032Z,100936.00
2022-09-05T16:59:56.461Z,100937.00
2022-09-05T17:02:28.571Z,100938.00
2022-09-05T17:05:22.016Z,100943.00
2022-09-05T17:08:08.668Z,100938.00
2022-09-05T17:10:57.644Z,100939.00
2022-09-05T17:13:48.039Z,100938.00
2022-09-05T17:16:29.249Z,100943.00
2022-09-05T17:18:59.894Z,100937.00
2022-09-05T17:24:23.023Z,100936.00
2022-09-05T17:29:23.975Z,100937.00
2022-09-05T17:29:28.935Z,100940.00
2022-09-05T17:32:56.370Z,100933.00
2022-09-05T17:35:41.721Z,100930.00
2022-09-05T17:38:33.050Z,100938.00
2022-09-05T17:41:35.374Z,100946.00
2022-09-05T17:44:29.992Z,100942.00
2022-09-05T17:47:28.886Z,100943.00
2022-09-05T17:50:33.299Z,100940.00
2022-09-05T17:53:25.666Z,100936.00
2022-09-05T17:55:55.249Z,100939.00
2022-09-05T17:58:49.139Z,100949.00
2022-09-05T18:01:28.573Z,100948.00
2022-09-05T18:04:17.056Z,100956.00
2022-09-05T18:06:59.059Z,100960.00
2022-09-05T18:09:40.783Z,100973.00
2022-09-05T18:15:40.533Z,100973.00
2022-09-05T18:19:27.731Z,100985.00
2022-09-05T18:21:23.079Z,100987.00
2022-09-05T18:24:01.061Z,100989.00
2022-09-05T18:26:29.576Z,100992.00
2022-09-05T18:29:58.345Z,100991.00
2022-09-05T18:33:53.855Z,100998.00
2022-09-05T18:36:09.885Z,100996.00
2022-09-05T18:38:51.512Z,100997.00
2022-09-05T18:41:23.199Z,100994.00
2022-09-05T18:44:13.046Z,100990.00
2022-09-05T18:46:48.050Z,100993.00
2022-09-05T18:50:21.425Z,100995.00
2022-09-05T18:52:30.530Z,100991.00
2022-09-05T18:55:52.662Z,100996.00
2022-09-05T18:58:12.335Z,101003.00
2022-09-05T19:00:44.552Z,101000.00
2022-09-05T19:03:18.002Z,100999.00
2022-09-05T19:06:34.781Z,101001.00
2022-09-05T19:09:02.234Z,100993.00
2022-09-05T19:11:53.929Z,100997.00
2022-09-05T19:14:45.667Z,100985.00
2022-09-05T19:17:27.484Z,100984.00
2022-09-05T19:20:31.400Z,100986.00
2022-09-05T19:23:11.862Z,100982.00
2022-09-05T19:25:46.379Z,100980.00
2022-09-05T19:34:50.474Z,100983.00
2022-09-05T19:36:45.019Z,100976.00
2022-09-05T19:37:06.829Z,100973.00
2022-09-05T19:37:37.359Z,100970.00
2022-09-05T19:45:43.024Z,100969.00
2022-09-05T19:47:38.168Z,100968.00
2022-09-05T19:47:42.606Z,100962.00
2022-09-05T19:48:27.641Z,100966.00
2022-09-05T19:51:16.921Z,100969.00
2022-09-05T19:54:04.589Z,100963.00
2022-09-05T19:56:42.130Z,100964.00
2022-09-05T19:59:34.093Z,100966.00
2022-09-05T20:02:03.387Z,100962.00
2022-09-05T20:04:38.611Z,100953.00
2022-09-05T20:07:19.094Z,100954.00
2022-09-05T20:09:49.545Z,100963.00
2022-09-05T20:12:25.439Z,100967.00
2022-09-05T20:14:52.868Z,100962.00
2022-09-05T20:17:30.022Z,100961.00
2022-09-05T20:20:22.483Z,100955.00
2022-09-05T20:22:59.256Z,100959.00
2022-09-05T20:25:48.285Z,100955.00
2022-09-05T20:28:23.414Z,100960.00
2022-09-05T20:30:59.346Z,100967.00
2022-09-05T20:33:35.101Z,100969.00
2022-09-05T20:40:35.811Z,100967.00
2022-09-05T20:43:20.997Z,100971.00
2022-09-05T20:43:31.715Z,100969.00
2022-09-05T20:45:44.939Z,100970.00
2022-09-05T20:54:08.902Z,100977.00
2022-09-05T20:54:26.822Z,100973.00
2022-09-05T20:54:28.316Z,100973.00
2022-09-05T20:56:48.911Z,100974.00
2022-09-05T20:59:35.616Z,100972.00
2022-09-05T21:02:07.226Z,100973.00
2022-09-05T21:04:38.900Z,100969.00
2022-09-05T21:07:23.077Z,100981.00
2022-09-05T21:09:59.963Z,100976.00
2022-09-05T21:12:45.898Z,100985.00
2022-09-05T21:15:52.027Z,100984.00
2022-09-05T21:18:33.027Z,100976.00
2022-09-05T21:21:27.885Z,100977.00
2022-09-05T21:24:16.346Z,100974.00
2022-09-05T21:26:48.055Z,100972.00
2022-09-05T21:29:32.938Z,100973.00
2022-09-05T21:32:09.765Z,100973.00
2022-09-05T21:34:47.493Z,100971.00
2022-09-05T21:37:18.896Z,100962.00
2022-09-05T21:39:59.080Z,100958.00
2022-09-05T21:46:23.746Z,100962.00
2022-09-05T21:47:48.432Z,100961.00
2022-09-05T21:48:09.060Z,100966.00
2022-09-05T21:50:54.330Z,100957.00
2022-09-05T21:59:13.340Z,100961.00
2022-09-05T21:59:25.235Z,100962.00
2022-09-05T22:02:08.686Z,100952.00
2022-09-05T22:04:41.756Z,100954.00
2022-09-05T22:07:19.584Z,100955.00
2022-09-05T22:10:00.023Z,100955.00
2022-09-05T22:12:33.755Z,100958.00
2022-09-05T22:15:05.964Z,100964.00
2022-09-05T22:17:54.414Z,100952.00
2022-09-05T22:20:29.059Z,100951.00
2022-09-05T22:22:57.205Z,100952.00
2022-09-05T22:25:31.740Z,100954.00
2022-09-05T22:28:18.296Z,100951.00
2022-09-05T22:30:46.235Z,100944.00
2022-09-05T22:33:13.891Z,100934.00
2022-09-05T22:35:42.102Z,100938.00
2022-09-05T22:38:19.258Z,100936.00
2022-09-05T22:40:49.349Z,100926.00
2022-09-05T22:43:17.279Z,100926.00
2022-09-05T22:45:44.898Z,100924.00
2022-09-05T22:48:14.865Z,100925.00
2022-09-05T22:50:43.342Z,100920.00
2022-09-05T22:53:11.277Z,100916.00
2022-09-05T22:55:41.483Z,100902.00
2022-09-05T22:58:11.200Z,100903.00
2022-09-05T23:00:40.120Z,100901.00
2022-09-05T23:03:08.230Z,100891.00
2022-09-05T23:05:36.104Z,100883.00
2022-09-05T23:08:05.879Z,100883.00
2022-09-05T23:10:35.039Z,100877.00
2022-09-05T23:13:08.328Z,100873.00
2022-09-05T23:15:37.170Z,100883.00
2022-09-05T23:18:05.331Z,100878.00
2022-09-05T23:20:33.780Z,100892.00
2022-09-05T23:23:06.354Z,100883.00
2022-09-05T23:25:35.554Z,100886.00
2022-09-05T23:28:08.178Z,100881.00
2022-09-05T23:30:38.324Z,100880.00
2022-09-05T23:33:08.237Z,100874.00
2022-09-05T23:35:37.308Z,100873.00
2022-09-05T23:38:10.498Z,100871.00
2022-09-05T23:40:39.275Z,100874.00
2022-09-05T23:43:07.688Z,100877.00
2022-09-05T23:45:36.231Z,100880.00
2022-09-05T23:48:04.404Z,100873.00
2022-09-05T23:50:32.232Z,100866.00
2022-09-05T23:53:04.860Z,100875.00
2022-09-05T23:55:33.031Z,100870.00
2022-09-05T23:58:00.900Z,100871.00
